Portada
METAR-TAF:

METAR-TAF

Aeroports :

Yezd, Iran

latitud: 31-54N, longitud: 054-24E, altitud: 1238 m

Observació

L'informe es va fer fa 27 minuts, a les 03:00 UTC
Vent 2 kt del Oest/Sud-Oest
Temperatura 31°C
Humitat 18%
Pressió 1013 hPa
Visibilitat: 8000 m
Escasses núvols a una alçada de 5000 ft
Cel ennuvolat a una alçada de 10000 ft

METAR: OIYY 220300Z 24002KT 8000 FEW050 BKN100 31/04 Q1013

Hora: 07:57 (03:27 UTC)


TAF: manca

Observacions i pronòstics meteorològics de més de 4000 aeroports (METAR i TAF).

Les estacions disponibles són els punts grocs i vermells al mapa.

Posi el ratolí al punt desitjat per veure el nom de l'estació.

Feu clic per veure les observacions i els pronòstics meteorològics.

Per canviar el mapa: feu clic els botons verds amb una creu de color negre per apropar; al botó verd amb un guió per allunyar la imatge; o en les fletxes verdes per a mapes adjacents.


METAR-TAF: